createdAt,value
2023-03-07T00:02:19.557Z,35.3
2023-03-07T00:05:21.593Z,30.5
2023-03-07T00:08:23.503Z,27.1
2023-03-07T00:11:25.450Z,33.6
2023-03-07T00:14:27.384Z,35.8
2023-03-07T00:17:29.360Z,29.8
2023-03-07T00:20:31.327Z,31.1
2023-03-07T00:23:33.337Z,33.3
2023-03-07T00:26:35.257Z,35.1
2023-03-07T00:29:37.231Z,36.3
2023-03-07T00:32:39.296Z,38.7
2023-03-07T00:35:41.188Z,36.2
2023-03-07T00:38:43.194Z,39.1
2023-03-07T00:41:45.108Z,36.5
2023-03-07T00:44:47.068Z,39.8
2023-03-07T00:47:49.045Z,36.6
2023-03-07T00:50:50.987Z,37.8
2023-03-07T00:53:52.989Z,41.7
2023-03-07T00:56:54.932Z,41.6
2023-03-07T00:59:56.883Z,41.5
2023-03-07T01:02:58.860Z,37.7
2023-03-07T01:06:00.828Z,38.8
2023-03-07T01:09:02.793Z,35.3
2023-03-07T01:12:04.887Z,42.6
2023-03-07T01:15:06.731Z,43.1
2023-03-07T01:18:08.673Z,45.1
2023-03-07T01:21:10.646Z,47.1
2023-03-07T01:24:12.774Z,48.4
2023-03-07T01:27:14.581Z,42.2
2023-03-07T01:30:16.562Z,44.3
2023-03-07T01:33:18.495Z,43.9
2023-03-07T01:36:20.518Z,51.2
2023-03-07T01:39:22.426Z,45.4
2023-03-07T01:42:24.392Z,42.2
2023-03-07T01:45:26.352Z,46.8
2023-03-07T01:48:28.318Z,42.6
2023-03-07T01:51:30.274Z,42.4
2023-03-07T01:54:32.271Z,45.4
2023-03-07T01:57:34.211Z,39.3
2023-03-07T02:00:36.156Z,44
2023-03-07T02:03:38.120Z,45.6
2023-03-07T02:06:40.085Z,46.3
2023-03-07T02:09:42.065Z,47.6
2023-03-07T02:12:44.040Z,42.3
2023-03-07T02:15:46.015Z,40.1
2023-03-07T02:18:47.953Z,36.9
2023-03-07T02:21:49.886Z,47.3
2023-03-07T02:24:51.831Z,41
2023-03-07T02:27:53.820Z,41.7
2023-03-07T02:30:55.800Z,42.7
2023-03-07T02:33:57.754Z,36
2023-03-07T02:36:59.686Z,38.3
2023-03-07T02:40:01.642Z,47.6
2023-03-07T02:43:03.637Z,41.7
2023-03-07T02:46:05.605Z,43.7
2023-03-07T02:49:07.555Z,42
2023-03-07T02:52:09.524Z,40.4
2023-03-07T02:55:11.515Z,38.5
2023-03-07T02:58:13.464Z,40.5
2023-03-07T03:01:15.445Z,40.2
2023-03-07T03:04:17.423Z,47.5
2023-03-07T03:07:19.283Z,41.4
2023-03-07T03:10:21.273Z,31.8
2023-03-07T03:13:23.252Z,37.9
2023-03-07T03:16:25.229Z,39.1
2023-03-07T03:19:27.138Z,39.1
2023-03-07T03:22:29.113Z,32.1
2023-03-07T03:25:31.061Z,36.6
2023-03-07T03:28:33.025Z,35.1
2023-03-07T03:31:35.129Z,38.1
2023-03-07T03:34:36.955Z,37.5
2023-03-07T03:37:38.983Z,39.3
2023-03-07T03:40:40.909Z,30.6
2023-03-07T03:43:43.020Z,34.9
2023-03-07T03:46:44.942Z,30.2
2023-03-07T03:49:46.813Z,29.8
2023-03-07T03:52:48.777Z,27.6
2023-03-07T03:55:50.733Z,30.2
2023-03-07T03:58:52.724Z,26.7
2023-03-07T04:01:54.772Z,29.3
2023-03-07T04:04:56.653Z,30.2
2023-03-07T04:07:58.679Z,30.7
2023-03-07T04:11:00.590Z,26.9
2023-03-07T04:14:02.559Z,25.7
2023-03-07T04:17:04.504Z,23.4
2023-03-07T04:20:06.459Z,24.2
2023-03-07T04:23:08.427Z,24.4
2023-03-07T04:26:10.478Z,24.1
2023-03-07T04:29:12.361Z,24.3
2023-03-07T04:32:14.355Z,26.9
2023-03-07T04:35:16.279Z,24.6
2023-03-07T04:38:18.245Z,25.6
2023-03-07T04:41:20.217Z,22.4
2023-03-07T04:44:22.213Z,21.2
2023-03-07T04:47:24.165Z,24
2023-03-07T04:50:26.141Z,23.9
2023-03-07T04:53:28.088Z,22.7
2023-03-07T04:56:30.030Z,23
2023-03-07T04:59:31.987Z,27.3
2023-03-07T05:02:33.969Z,26.5
2023-03-07T05:05:37.553Z,24
2023-03-07T05:08:37.899Z,26.3
2023-03-07T05:11:39.883Z,25.6
2023-03-07T05:14:41.869Z,26.3
2023-03-07T05:17:43.868Z,26.2
2023-03-07T05:20:45.906Z,26.2
2023-03-07T05:23:47.743Z,29.8
2023-03-07T05:26:49.711Z,24.7
2023-03-07T05:29:51.697Z,24.2
2023-03-07T05:32:53.667Z,27.1
2023-03-07T05:35:55.691Z,28
2023-03-07T05:38:57.644Z,27.1
2023-03-07T05:41:59.598Z,29.3
2023-03-07T05:45:01.556Z,31.5
2023-03-07T05:48:03.558Z,25
2023-03-07T05:51:05.505Z,28.9
2023-03-07T05:54:07.468Z,28.5
2023-03-07T05:57:09.417Z,26.5
2023-03-07T06:00:11.470Z,30.8
2023-03-07T06:03:13.479Z,29.7
2023-03-07T06:06:15.430Z,26.1
2023-03-07T06:09:17.391Z,27.7
2023-03-07T06:12:19.319Z,26.3
2023-03-07T06:15:21.333Z,26.4
2023-03-07T06:18:23.269Z,25.2
2023-03-07T06:21:25.218Z,26.6
2023-03-07T06:24:27.175Z,26.5
2023-03-07T06:27:29.182Z,23.3
2023-03-07T06:30:31.100Z,25.3
2023-03-07T06:33:33.156Z,26.9
2023-03-07T06:36:35.131Z,24.7
2023-03-07T06:39:37.056Z,26.6
2023-03-07T06:42:39.041Z,26
2023-03-07T06:45:41.002Z,22.9
2023-03-07T06:48:43.084Z,27.1
2023-03-07T06:51:44.892Z,25.6
2023-03-07T06:54:46.894Z,24.8
2023-03-07T06:57:48.840Z,25.5
2023-03-07T07:00:50.788Z,24.7
2023-03-07T07:03:52.747Z,24.3
2023-03-07T07:06:54.696Z,22.6
2023-03-07T07:09:56.656Z,24.2
2023-03-07T07:12:58.605Z,30.9
2023-03-07T07:16:00.622Z,26.9
2023-03-07T07:19:02.575Z,27.2
2023-03-07T07:22:04.528Z,20.7
2023-03-07T07:25:06.524Z,27.4
2023-03-07T07:28:08.533Z,23.1
2023-03-07T07:31:10.462Z,21.7
2023-03-07T07:34:12.442Z,23.6
2023-03-07T07:37:14.437Z,25.9
2023-03-07T07:40:16.470Z,24.7
2023-03-07T07:43:18.402Z,23.7
2023-03-07T07:46:20.421Z,25.2
2023-03-07T07:49:22.322Z,25
2023-03-07T07:52:24.296Z,25.1
2023-03-07T07:55:26.255Z,20.2
2023-03-07T07:58:28.206Z,22.9
2023-03-07T08:01:30.196Z,19.9
2023-03-07T08:04:32.131Z,21.4
2023-03-07T08:07:34.162Z,24.7
2023-03-07T08:10:36.088Z,20.6
2023-03-07T08:13:38.041Z,18.4
2023-03-07T08:16:40.035Z,20.9
2023-03-07T08:19:41.986Z,22
2023-03-07T08:22:43.947Z,20.7
2023-03-07T08:25:45.912Z,21.6
2023-03-07T08:28:47.923Z,19.7
2023-03-07T08:31:49.782Z,23.3
2023-03-07T08:34:51.752Z,20
2023-03-07T08:37:53.721Z,24.1
2023-03-07T08:40:55.668Z,19.5
2023-03-07T08:43:57.661Z,19
2023-03-07T08:46:59.618Z,21
2023-03-07T08:50:01.579Z,19.5
2023-03-07T08:53:03.541Z,22.6
2023-03-07T08:56:05.511Z,20
2023-03-07T08:59:07.493Z,18.8
2023-03-07T09:02:09.454Z,17.5
2023-03-07T09:05:11.442Z,18.2
2023-03-07T09:08:13.388Z,20.7
2023-03-07T09:11:15.341Z,15.3
2023-03-07T09:14:17.344Z,18.4
2023-03-07T09:17:19.269Z,17.6
2023-03-07T09:20:21.230Z,15
2023-03-07T09:23:23.195Z,18.6
2023-03-07T09:26:25.150Z,16.6
2023-03-07T09:29:27.147Z,14.7
2023-03-07T09:32:29.201Z,17.9
2023-03-07T09:35:31.058Z,18.6
2023-03-07T09:38:32.991Z,15.8
2023-03-07T09:41:34.955Z,17.6
2023-03-07T09:44:36.965Z,15.3
2023-03-07T09:47:38.900Z,13.8
2023-03-07T09:50:40.856Z,14.4
2023-03-07T09:53:42.796Z,15.7
2023-03-07T09:56:44.771Z,12.6
2023-03-07T09:59:46.738Z,13.1
2023-03-07T10:02:48.731Z,14.8
2023-03-07T10:05:50.670Z,15.5
2023-03-07T10:08:52.623Z,14.1
2023-03-07T10:11:54.610Z,14.4
2023-03-07T10:14:56.555Z,13.4
2023-03-07T10:17:58.496Z,14.9
2023-03-07T10:21:00.557Z,11.3
2023-03-07T10:24:02.496Z,14.3
2023-03-07T10:27:04.540Z,13.9
2023-03-07T10:30:06.438Z,10.9
2023-03-07T10:33:08.418Z,11.3
2023-03-07T10:36:10.474Z,14.9
2023-03-07T10:39:12.363Z,13.7
2023-03-07T10:42:14.374Z,13.3
2023-03-07T10:45:16.290Z,11.8
2023-03-07T10:48:18.291Z,11.6
2023-03-07T10:51:20.210Z,12.5
2023-03-07T10:54:22.224Z,12.4
2023-03-07T10:57:24.170Z,11
2023-03-07T11:00:26.160Z,11.4
2023-03-07T11:03:28.172Z,12.4
2023-03-07T11:06:30.122Z,11.8
2023-03-07T11:09:32.109Z,12.2
2023-03-07T11:12:34.035Z,9.5
2023-03-07T11:15:36.012Z,12.4
2023-03-07T11:18:37.951Z,10.6
2023-03-07T11:21:39.929Z,11.1
2023-03-07T11:24:41.867Z,11.3
2023-03-07T11:27:44.102Z,10.4
2023-03-07T11:30:45.864Z,13.9
2023-03-07T11:33:58.437Z,10.9
2023-03-07T11:36:49.765Z,9.6
2023-03-07T11:39:51.733Z,11.4
2023-03-07T11:42:53.705Z,9.3
2023-03-07T11:45:55.669Z,11.4
2023-03-07T11:48:57.636Z,12
2023-03-07T11:51:59.606Z,10.8
2023-03-07T11:55:01.576Z,9.2
2023-03-07T11:58:03.508Z,13.9
2023-03-07T12:01:05.498Z,9.9
2023-03-07T12:04:07.458Z,10.5
2023-03-07T12:07:09.513Z,9.5
2023-03-07T12:10:11.433Z,9
2023-03-07T12:13:13.361Z,9
2023-03-07T12:16:15.376Z,12.3
2023-03-07T12:19:17.276Z,11.7
2023-03-07T12:22:19.284Z,9
2023-03-07T12:25:21.202Z,9.8
2023-03-07T12:28:23.230Z,13.2
2023-03-07T12:31:25.188Z,10.1
2023-03-07T12:34:27.182Z,11.4
2023-03-07T12:37:29.120Z,9.7
2023-03-07T12:40:31.098Z,8.5
2023-03-07T12:43:33.033Z,9.5
2023-03-07T12:46:35.064Z,11.5
2023-03-07T12:49:44.453Z,11.6
2023-03-07T12:52:38.987Z,12.7
2023-03-07T12:55:40.991Z,10.8
2023-03-07T12:58:42.972Z,10
2023-03-07T13:01:44.916Z,15
2023-03-07T13:04:46.894Z,10.1
2023-03-07T13:07:48.847Z,10.6
2023-03-07T13:10:50.814Z,8.4
2023-03-07T13:13:52.776Z,8.8
2023-03-07T13:16:54.806Z,12.2
2023-03-07T13:19:56.706Z,10.7
2023-03-07T13:22:58.756Z,9.3
2023-03-07T13:26:00.631Z,10.1
2023-03-07T13:29:02.601Z,10.4
2023-03-07T13:32:04.680Z,9.1
2023-03-07T13:35:06.563Z,8.9
2023-03-07T13:38:08.526Z,8.9
2023-03-07T13:41:10.530Z,9.5
2023-03-07T13:44:12.480Z,8.6
2023-03-07T13:47:14.458Z,9.8
2023-03-07T13:50:16.412Z,11.1
2023-03-07T13:53:18.412Z,10.2
2023-03-07T13:56:20.350Z,11.2
2023-03-07T13:59:22.318Z,12.6
2023-03-07T14:02:24.287Z,12.7
2023-03-07T14:05:28.990Z,11.7
2023-03-07T14:08:30.959Z,11.3
2023-03-07T14:11:32.911Z,10.1
2023-03-07T14:14:34.878Z,9.1
2023-03-07T14:17:36.905Z,11.2
2023-03-07T14:20:38.862Z,10.2
2023-03-07T14:23:40.848Z,10.8
2023-03-07T14:26:42.798Z,11.9
2023-03-07T14:29:44.728Z,10.2
2023-03-07T14:32:46.696Z,10.8
2023-03-07T14:35:48.701Z,10.9
2023-03-07T14:38:50.648Z,9.4
2023-03-07T14:41:52.636Z,10.3
2023-03-07T14:44:54.600Z,12
2023-03-07T14:47:56.536Z,12.3
2023-03-07T14:50:58.487Z,11.8
2023-03-07T14:54:00.457Z,11.6
2023-03-07T14:57:02.447Z,17.2
2023-03-07T15:00:04.445Z,12.2
2023-03-07T15:03:06.395Z,9.7
2023-03-07T15:06:08.360Z,14.9
2023-03-07T15:09:10.367Z,11.5
2023-03-07T15:12:12.264Z,10.2
2023-03-07T15:15:14.317Z,9.4
2023-03-07T15:18:16.213Z,8.6
2023-03-07T15:21:18.221Z,8.8
2023-03-07T15:24:20.160Z,9.1
2023-03-07T15:27:22.168Z,8.4
2023-03-07T15:30:24.097Z,7.7
2023-03-07T15:33:26.091Z,7.8
2023-03-07T15:36:28.012Z,7.3
2023-03-07T15:39:30.045Z,8.5
2023-03-07T15:42:31.977Z,8.4
2023-03-07T15:45:33.967Z,7
2023-03-07T15:48:35.867Z,8.8
2023-03-07T15:51:37.864Z,9.1
2023-03-07T15:54:39.803Z,6.1
2023-03-07T15:57:41.782Z,7.8
2023-03-07T16:00:43.745Z,7.5
2023-03-07T16:03:45.855Z,7.3
2023-03-07T16:06:47.721Z,10.4
2023-03-07T16:09:49.683Z,9.1
2023-03-07T16:12:51.628Z,9.6
2023-03-07T16:15:53.604Z,9.5
2023-03-07T16:18:55.769Z,8.9
2023-03-07T16:21:57.570Z,7.8
2023-03-07T16:24:59.522Z,9.4
2023-03-07T16:28:01.469Z,10.5
2023-03-07T16:31:03.433Z,8.1
2023-03-07T16:34:05.384Z,9.9
2023-03-07T16:37:07.318Z,9.2
2023-03-07T16:40:09.292Z,9.4
2023-03-07T16:43:11.241Z,9
2023-03-07T16:46:13.361Z,7.3
2023-03-07T16:49:15.372Z,10.4
2023-03-07T16:52:17.183Z,11.4
2023-03-07T16:55:19.125Z,10.6
2023-03-07T16:58:21.072Z,9.2
2023-03-07T17:01:23.097Z,11.6
2023-03-07T17:04:24.992Z,11.5
2023-03-07T17:07:27.045Z,16.2
2023-03-07T17:10:28.950Z,13.3
2023-03-07T17:13:30.958Z,13.7
2023-03-07T17:16:32.925Z,16.5
2023-03-07T17:19:34.899Z,12.6
2023-03-07T17:22:36.814Z,12.3
2023-03-07T17:25:38.779Z,13.3
2023-03-07T17:28:40.746Z,17.1
2023-03-07T17:31:42.687Z,13.3
2023-03-07T17:34:44.696Z,14.7
2023-03-07T17:37:46.654Z,15.6
2023-03-07T17:40:48.714Z,11.9
2023-03-07T17:43:50.701Z,16.1
2023-03-07T17:46:52.680Z,14.3
2023-03-07T17:49:54.655Z,15.5
2023-03-07T17:52:56.742Z,15
2023-03-07T17:55:58.698Z,13.3
2023-03-07T17:59:00.619Z,13.3
2023-03-07T18:02:02.687Z,14
2023-03-07T18:05:04.609Z,12.9
2023-03-07T18:08:06.586Z,12.1
2023-03-07T18:11:08.562Z,14.3
2023-03-07T18:14:10.517Z,13.2
2023-03-07T18:17:12.515Z,12.2
2023-03-07T18:20:14.547Z,15.4
2023-03-07T18:23:16.433Z,12.9
2023-03-07T18:26:18.383Z,14.3
2023-03-07T18:29:20.315Z,16
2023-03-07T18:32:22.335Z,14.3
2023-03-07T18:35:24.256Z,13.7
2023-03-07T18:38:26.227Z,12.4
2023-03-07T18:41:28.193Z,11.4
2023-03-07T18:44:30.183Z,13.9
2023-03-07T18:47:32.136Z,13.3
2023-03-07T18:50:34.114Z,12
2023-03-07T18:53:36.104Z,12.6
2023-03-07T18:56:40.849Z,10.9
2023-03-07T18:59:42.839Z,12.4
2023-03-07T19:02:44.795Z,12.2
2023-03-07T19:05:46.740Z,14.6
2023-03-07T19:08:54.512Z,12.8
2023-03-07T19:11:56.873Z,15.1
2023-03-07T19:14:59.150Z,14
2023-03-07T19:18:01.011Z,17.6
2023-03-07T19:21:02.994Z,13.9
2023-03-07T19:24:04.974Z,14.6
2023-03-07T19:27:06.921Z,14.4
2023-03-07T19:30:08.845Z,13.6
2023-03-07T19:33:10.823Z,16.1
2023-03-07T19:36:12.847Z,14.1
2023-03-07T19:39:14.862Z,16
2023-03-07T19:42:16.729Z,14.9
2023-03-07T19:45:18.714Z,12.9
2023-03-07T19:48:20.621Z,13.1
2023-03-07T19:51:22.646Z,14.1
2023-03-07T19:54:24.713Z,12.5
2023-03-07T19:57:26.510Z,14
2023-03-07T20:00:28.491Z,15.3
2023-03-07T20:03:30.453Z,13.7
2023-03-07T20:06:32.457Z,12.2
2023-03-07T20:09:34.419Z,15.1
2023-03-07T20:12:36.391Z,12.8
2023-03-07T20:15:38.379Z,17.1
2023-03-07T20:18:40.311Z,12.2
2023-03-07T20:21:42.294Z,11.6
2023-03-07T20:24:44.266Z,11.5
2023-03-07T20:27:46.215Z,9.4
2023-03-07T20:30:48.176Z,9.4
2023-03-07T20:33:50.140Z,7.5
2023-03-07T20:36:52.110Z,8.1
2023-03-07T20:39:54.101Z,6.9
2023-03-07T20:42:56.043Z,6.2
2023-03-07T20:45:58.046Z,5.7
2023-03-07T20:48:59.947Z,5
2023-03-07T20:52:01.942Z,4.8
2023-03-07T20:55:03.899Z,6.2
2023-03-07T20:58:05.889Z,4.7
2023-03-07T21:01:07.866Z,4.6
2023-03-07T21:04:09.830Z,3.2
2023-03-07T21:07:11.980Z,2.6
2023-03-07T21:10:13.730Z,2.6
2023-03-07T21:13:16.009Z,3.5
2023-03-07T21:16:17.733Z,2
2023-03-07T21:19:20.629Z,2.3
2023-03-07T21:22:21.609Z,2.5
2023-03-07T21:25:23.581Z,1.9
2023-03-07T21:28:25.545Z,2.9
2023-03-07T21:31:27.602Z,2.6
2023-03-07T21:34:29.460Z,2.5
2023-03-07T21:37:31.440Z,2.5
2023-03-07T21:40:33.407Z,2.4
2023-03-07T21:43:35.403Z,2.8
2023-03-07T21:46:37.359Z,3
2023-03-07T21:49:39.295Z,2.4
2023-03-07T21:52:41.293Z,1.7
2023-03-07T21:55:43.218Z,2.1
2023-03-07T21:58:45.207Z,2.2
2023-03-07T22:01:47.158Z,2.2
2023-03-07T22:04:49.127Z,3.5
2023-03-07T22:07:51.075Z,2.8
2023-03-07T22:10:53.035Z,2.6
2023-03-07T22:13:55.033Z,2.7
2023-03-07T22:16:57.109Z,2.7
2023-03-07T22:19:58.943Z,2.4
2023-03-07T22:23:00.934Z,3.4
2023-03-07T22:26:02.892Z,3.8
2023-03-07T22:29:04.869Z,5.1
2023-03-07T22:32:06.937Z,3.7
2023-03-07T22:35:08.791Z,5
2023-03-07T22:38:10.725Z,4
2023-03-07T22:41:12.704Z,3.3
2023-03-07T22:44:14.688Z,4
2023-03-07T22:47:16.617Z,4.2
2023-03-07T22:50:18.612Z,3.4
2023-03-07T22:53:20.571Z,3.8
2023-03-07T22:56:22.547Z,3.5
2023-03-07T22:59:24.470Z,3.9
2023-03-07T23:02:26.449Z,4
2023-03-07T23:05:28.407Z,3.5
2023-03-07T23:08:30.388Z,4.1
2023-03-07T23:11:32.313Z,4.7
2023-03-07T23:14:34.299Z,3.5
2023-03-07T23:17:36.239Z,3.4
2023-03-07T23:20:38.260Z,3.6
2023-03-07T23:23:40.190Z,3.6
2023-03-07T23:26:42.154Z,2.9
2023-03-07T23:29:44.132Z,3.3
2023-03-07T23:32:46.082Z,4.2
2023-03-07T23:35:48.090Z,3.5
2023-03-07T23:38:50.012Z,2.5
2023-03-07T23:41:51.980Z,3.8
2023-03-07T23:44:53.941Z,3.8
2023-03-07T23:47:55.928Z,2.5
2023-03-07T23:50:57.916Z,2.6
2023-03-07T23:53:59.859Z,2.8
2023-03-07T23:57:01.831Z,2.7
